sensor_id;sensor_type;location;lat;lon;timestamp;P1;durP1;ratioP1;P2;durP2;ratioP2
4638;SDS011;2332;38.646;-9.154;2023-02-01T00:00:14;56.10;;;33.90;;
4638;SDS011;2332;38.646;-9.154;2023-02-01T00:02:39;51.43;;;31.67;;
4638;SDS011;2332;38.646;-9.154;2023-02-01T00:05:08;56.60;;;33.37;;
4638;SDS011;2332;38.646;-9.154;2023-02-01T00:07:34;69.73;;;46.23;;
4638;SDS011;2332;38.646;-9.154;2023-02-01T00:09:59;60.57;;;39.23;;
4638;SDS011;2332;38.646;-9.154;2023-02-01T00:12:25;65.93;;;37.17;;
4638;SDS011;2332;38.646;-9.154;2023-02-01T00:14:50;62.00;;;36.33;;
4638;SDS011;2332;38.646;-9.154;2023-02-01T00:17:15;58.90;;;35.10;;
4638;SDS011;2332;38.646;-9.154;2023-02-01T00:19:41;64.57;;;37.17;;
4638;SDS011;2332;38.646;-9.154;2023-02-01T00:22:06;59.33;;;36.03;;
4638;SDS011;2332;38.646;-9.154;2023-02-01T00:24:32;64.53;;;35.87;;
4638;SDS011;2332;38.646;-9.154;2023-02-01T00:26:58;61.00;;;35.57;;
4638;SDS011;2332;38.646;-9.154;2023-02-01T00:29:23;61.17;;;35.23;;
4638;SDS011;2332;38.646;-9.154;2023-02-01T00:31:49;54.97;;;35.03;;
4638;SDS011;2332;38.646;-9.154;2023-02-01T00:34:18;60.70;;;34.63;;
4638;SDS011;2332;38.646;-9.154;2023-02-01T00:36:44;62.13;;;34.43;;
4638;SDS011;2332;38.646;-9.154;2023-02-01T00:39:10;60.00;;;36.23;;
4638;SDS011;2332;38.646;-9.154;2023-02-01T00:41:35;60.43;;;35.60;;
4638;SDS011;2332;38.646;-9.154;2023-02-01T00:44:00;62.33;;;38.83;;
4638;SDS011;2332;38.646;-9.154;2023-02-01T00:46:26;58.73;;;35.17;;
4638;SDS011;2332;38.646;-9.154;2023-02-01T00:48:52;58.77;;;37.33;;
4638;SDS011;2332;38.646;-9.154;2023-02-01T00:51:18;51.50;;;32.13;;
4638;SDS011;2332;38.646;-9.154;2023-02-01T00:53:45;58.33;;;34.57;;
4638;SDS011;2332;38.646;-9.154;2023-02-01T00:56:13;59.33;;;31.73;;
4638;SDS011;2332;38.646;-9.154;2023-02-01T00:58:39;48.97;;;29.77;;
4638;SDS011;2332;38.646;-9.154;2023-02-01T01:01:06;45.90;;;30.10;;
4638;SDS011;2332;38.646;-9.154;2023-02-01T01:03:32;53.20;;;31.13;;
4638;SDS011;2332;38.646;-9.154;2023-02-01T01:06:01;51.93;;;32.40;;
4638;SDS011;2332;38.646;-9.154;2023-02-01T01:08:27;57.20;;;35.40;;
4638;SDS011;2332;38.646;-9.154;2023-02-01T01:10:52;51.73;;;30.47;;
4638;SDS011;2332;38.646;-9.154;2023-02-01T01:13:18;60.53;;;34.93;;
4638;SDS011;2332;38.646;-9.154;2023-02-01T01:15:43;58.83;;;34.07;;
4638;SDS011;2332;38.646;-9.154;2023-02-01T01:18:09;52.50;;;34.40;;
4638;SDS011;2332;38.646;-9.154;2023-02-01T01:20:35;55.13;;;34.27;;
4638;SDS011;2332;38.646;-9.154;2023-02-01T01:23:01;54.20;;;31.20;;
4638;SDS011;2332;38.646;-9.154;2023-02-01T01:25:27;51.00;;;30.00;;
4638;SDS011;2332;38.646;-9.154;2023-02-01T01:27:52;45.53;;;28.70;;
4638;SDS011;2332;38.646;-9.154;2023-02-01T01:30:17;48.87;;;30.60;;
4638;SDS011;2332;38.646;-9.154;2023-02-01T01:32:43;53.03;;;31.67;;
4638;SDS011;2332;38.646;-9.154;2023-02-01T01:35:08;47.90;;;30.60;;
4638;SDS011;2332;38.646;-9.154;2023-02-01T01:37:34;48.50;;;29.50;;
4638;SDS011;2332;38.646;-9.154;2023-02-01T01:40:01;52.37;;;30.00;;
4638;SDS011;2332;38.646;-9.154;2023-02-01T01:42:26;47.57;;;29.10;;
4638;SDS011;2332;38.646;-9.154;2023-02-01T01:44:56;45.80;;;28.30;;
4638;SDS011;2332;38.646;-9.154;2023-02-01T01:47:22;41.37;;;26.77;;
4638;SDS011;2332;38.646;-9.154;2023-02-01T01:49:48;47.73;;;27.53;;
4638;SDS011;2332;38.646;-9.154;2023-02-01T01:52:14;40.60;;;26.70;;
4638;SDS011;2332;38.646;-9.154;2023-02-01T01:54:48;40.00;;;26.20;;
4638;SDS011;2332;38.646;-9.154;2023-02-01T01:57:24;37.30;;;24.43;;
4638;SDS011;2332;38.646;-9.154;2023-02-01T01:59:53;42.50;;;25.77;;
4638;SDS011;2332;38.646;-9.154;2023-02-01T02:02:20;43.07;;;28.20;;
4638;SDS011;2332;38.646;-9.154;2023-02-01T02:04:45;41.83;;;25.63;;
4638;SDS011;2332;38.646;-9.154;2023-02-01T02:07:11;42.23;;;25.50;;
4638;SDS011;2332;38.646;-9.154;2023-02-01T02:09:39;41.33;;;25.23;;
4638;SDS011;2332;38.646;-9.154;2023-02-01T02:12:04;40.43;;;25.80;;
4638;SDS011;2332;38.646;-9.154;2023-02-01T02:14:30;39.20;;;24.83;;
4638;SDS011;2332;38.646;-9.154;2023-02-01T02:26:52;39.43;;;23.07;;
4638;SDS011;2332;38.646;-9.154;2023-02-01T02:29:28;39.70;;;24.07;;
4638;SDS011;2332;38.646;-9.154;2023-02-01T02:42:39;49.30;;;29.60;;
4638;SDS011;2332;38.646;-9.154;2023-02-01T02:45:40;39.63;;;24.83;;
4638;SDS011;2332;38.646;-9.154;2023-02-01T02:51:12;46.60;;;26.17;;
4638;SDS011;2332;38.646;-9.154;2023-02-01T02:53:57;35.43;;;23.43;;
4638;SDS011;2332;38.646;-9.154;2023-02-01T02:56:43;34.67;;;22.80;;
4638;SDS011;2332;38.646;-9.154;2023-02-01T02:59:27;43.80;;;24.60;;
4638;SDS011;2332;38.646;-9.154;2023-02-01T03:02:11;39.33;;;24.67;;
4638;SDS011;2332;38.646;-9.154;2023-02-01T03:04:56;39.00;;;24.33;;
4638;SDS011;2332;38.646;-9.154;2023-02-01T03:10:07;37.30;;;22.23;;
4638;SDS011;2332;38.646;-9.154;2023-02-01T03:12:33;33.77;;;23.10;;
4638;SDS011;2332;38.646;-9.154;2023-02-01T03:15:20;38.33;;;25.00;;
4638;SDS011;2332;38.646;-9.154;2023-02-01T03:17:47;40.83;;;23.73;;
4638;SDS011;2332;38.646;-9.154;2023-02-01T03:20:15;41.90;;;23.20;;
4638;SDS011;2332;38.646;-9.154;2023-02-01T03:22:41;42.03;;;24.83;;
4638;SDS011;2332;38.646;-9.154;2023-02-01T03:25:12;43.17;;;23.37;;
4638;SDS011;2332;38.646;-9.154;2023-02-01T03:30:20;54.03;;;27.93;;
4638;SDS011;2332;38.646;-9.154;2023-02-01T03:32:47;51.67;;;27.90;;
4638;SDS011;2332;38.646;-9.154;2023-02-01T03:35:26;44.10;;;26.50;;
4638;SDS011;2332;38.646;-9.154;2023-02-01T03:37:54;32.30;;;21.80;;
4638;SDS011;2332;38.646;-9.154;2023-02-01T03:40:22;38.37;;;25.17;;
4638;SDS011;2332;38.646;-9.154;2023-02-01T03:42:49;39.83;;;23.27;;
4638;SDS011;2332;38.646;-9.154;2023-02-01T03:45:28;46.80;;;24.30;;
4638;SDS011;2332;38.646;-9.154;2023-02-01T03:47:56;36.17;;;23.17;;
4638;SDS011;2332;38.646;-9.154;2023-02-01T03:50:22;33.40;;;21.67;;
4638;SDS011;2332;38.646;-9.154;2023-02-01T03:52:57;36.30;;;21.60;;
4638;SDS011;2332;38.646;-9.154;2023-02-01T03:55:24;33.37;;;21.17;;
4638;SDS011;2332;38.646;-9.154;2023-02-01T03:58:32;34.60;;;21.23;;
4638;SDS011;2332;38.646;-9.154;2023-02-01T04:00:39;34.63;;;20.10;;
4638;SDS011;2332;38.646;-9.154;2023-02-01T04:03:05;31.20;;;19.37;;
4638;SDS011;2332;38.646;-9.154;2023-02-01T04:05:31;39.10;;;19.10;;
4638;SDS011;2332;38.646;-9.154;2023-02-01T04:07:56;31.93;;;19.10;;
4638;SDS011;2332;38.646;-9.154;2023-02-01T04:10:22;33.33;;;18.63;;
4638;SDS011;2332;38.646;-9.154;2023-02-01T04:12:47;29.73;;;19.60;;
4638;SDS011;2332;38.646;-9.154;2023-02-01T04:15:13;30.33;;;19.70;;
4638;SDS011;2332;38.646;-9.154;2023-02-01T04:17:38;28.73;;;18.63;;
4638;SDS011;2332;38.646;-9.154;2023-02-01T04:20:04;31.60;;;19.77;;
4638;SDS011;2332;38.646;-9.154;2023-02-01T04:22:29;30.00;;;20.40;;
4638;SDS011;2332;38.646;-9.154;2023-02-01T04:24:55;32.70;;;20.27;;
4638;SDS011;2332;38.646;-9.154;2023-02-01T04:27:20;39.43;;;21.90;;
4638;SDS011;2332;38.646;-9.154;2023-02-01T04:29:46;30.40;;;18.57;;
4638;SDS011;2332;38.646;-9.154;2023-02-01T04:32:11;28.73;;;19.50;;
4638;SDS011;2332;38.646;-9.154;2023-02-01T04:34:36;32.13;;;20.30;;
4638;SDS011;2332;38.646;-9.154;2023-02-01T04:37:02;34.30;;;20.27;;
4638;SDS011;2332;38.646;-9.154;2023-02-01T04:39:27;29.57;;;19.57;;
4638;SDS011;2332;38.646;-9.154;2023-02-01T04:41:53;28.40;;;19.80;;
4638;SDS011;2332;38.646;-9.154;2023-02-01T04:44:18;30.87;;;20.07;;
4638;SDS011;2332;38.646;-9.154;2023-02-01T04:46:44;27.53;;;18.83;;
4638;SDS011;2332;38.646;-9.154;2023-02-01T04:49:10;31.40;;;19.90;;
4638;SDS011;2332;38.646;-9.154;2023-02-01T04:51:36;31.97;;;18.73;;
4638;SDS011;2332;38.646;-9.154;2023-02-01T04:54:02;43.73;;;23.40;;
4638;SDS011;2332;38.646;-9.154;2023-02-01T04:56:27;40.63;;;22.70;;
4638;SDS011;2332;38.646;-9.154;2023-02-01T04:58:53;34.67;;;21.73;;
4638;SDS011;2332;38.646;-9.154;2023-02-01T05:01:18;34.17;;;21.77;;
4638;SDS011;2332;38.646;-9.154;2023-02-01T05:03:44;37.77;;;21.33;;
4638;SDS011;2332;38.646;-9.154;2023-02-01T05:06:09;28.40;;;19.13;;
4638;SDS011;2332;38.646;-9.154;2023-02-01T05:08:34;32.80;;;20.90;;
4638;SDS011;2332;38.646;-9.154;2023-02-01T05:11:00;29.70;;;19.27;;
4638;SDS011;2332;38.646;-9.154;2023-02-01T05:13:27;26.37;;;18.00;;
4638;SDS011;2332;38.646;-9.154;2023-02-01T05:16:11;32.50;;;19.20;;
4638;SDS011;2332;38.646;-9.154;2023-02-01T05:18:37;30.67;;;18.00;;
4638;SDS011;2332;38.646;-9.154;2023-02-01T05:21:02;33.10;;;18.93;;
4638;SDS011;2332;38.646;-9.154;2023-02-01T05:23:27;28.07;;;18.20;;
4638;SDS011;2332;38.646;-9.154;2023-02-01T05:25:57;31.57;;;20.07;;
4638;SDS011;2332;38.646;-9.154;2023-02-01T05:28:22;28.27;;;17.67;;
4638;SDS011;2332;38.646;-9.154;2023-02-01T05:30:48;37.20;;;20.27;;
4638;SDS011;2332;38.646;-9.154;2023-02-01T05:33:13;32.17;;;19.83;;
4638;SDS011;2332;38.646;-9.154;2023-02-01T05:35:39;32.27;;;19.80;;
4638;SDS011;2332;38.646;-9.154;2023-02-01T05:38:04;28.53;;;17.40;;
4638;SDS011;2332;38.646;-9.154;2023-02-01T05:40:29;29.23;;;19.00;;
4638;SDS011;2332;38.646;-9.154;2023-02-01T05:42:55;34.80;;;18.97;;
4638;SDS011;2332;38.646;-9.154;2023-02-01T05:45:20;30.27;;;19.13;;
4638;SDS011;2332;38.646;-9.154;2023-02-01T05:47:45;37.80;;;20.00;;
4638;SDS011;2332;38.646;-9.154;2023-02-01T05:50:11;29.77;;;18.47;;
4638;SDS011;2332;38.646;-9.154;2023-02-01T05:52:36;36.27;;;18.80;;
4638;SDS011;2332;38.646;-9.154;2023-02-01T05:55:01;29.63;;;19.13;;
4638;SDS011;2332;38.646;-9.154;2023-02-01T05:57:27;31.27;;;19.50;;
4638;SDS011;2332;38.646;-9.154;2023-02-01T05:59:53;34.50;;;20.00;;
4638;SDS011;2332;38.646;-9.154;2023-02-01T06:02:18;28.93;;;18.93;;
4638;SDS011;2332;38.646;-9.154;2023-02-01T06:04:44;26.70;;;18.77;;
4638;SDS011;2332;38.646;-9.154;2023-02-01T06:07:09;32.03;;;17.50;;
4638;SDS011;2332;38.646;-9.154;2023-02-01T06:09:35;32.40;;;18.57;;
4638;SDS011;2332;38.646;-9.154;2023-02-01T06:12:02;35.13;;;20.13;;
4638;SDS011;2332;38.646;-9.154;2023-02-01T06:14:27;36.50;;;19.70;;
4638;SDS011;2332;38.646;-9.154;2023-02-01T06:16:53;36.40;;;21.73;;
4638;SDS011;2332;38.646;-9.154;2023-02-01T06:19:19;37.60;;;22.03;;
4638;SDS011;2332;38.646;-9.154;2023-02-01T06:21:47;43.67;;;21.70;;
4638;SDS011;2332;38.646;-9.154;2023-02-01T06:24:12;44.93;;;25.07;;
4638;SDS011;2332;38.646;-9.154;2023-02-01T06:26:38;36.33;;;24.30;;
4638;SDS011;2332;38.646;-9.154;2023-02-01T06:29:04;48.90;;;25.67;;
4638;SDS011;2332;38.646;-9.154;2023-02-01T06:31:31;42.00;;;23.40;;
4638;SDS011;2332;38.646;-9.154;2023-02-01T06:33:57;38.27;;;20.83;;
4638;SDS011;2332;38.646;-9.154;2023-02-01T06:36:22;52.50;;;21.67;;
4638;SDS011;2332;38.646;-9.154;2023-02-01T06:38:47;41.20;;;20.57;;
4638;SDS011;2332;38.646;-9.154;2023-02-01T06:41:13;44.67;;;21.30;;
4638;SDS011;2332;38.646;-9.154;2023-02-01T06:43:38;36.80;;;22.10;;
4638;SDS011;2332;38.646;-9.154;2023-02-01T06:46:05;41.70;;;24.77;;
4638;SDS011;2332;38.646;-9.154;2023-02-01T06:48:31;39.10;;;21.30;;
4638;SDS011;2332;38.646;-9.154;2023-02-01T06:50:57;32.70;;;19.67;;
4638;SDS011;2332;38.646;-9.154;2023-02-01T06:53:22;32.60;;;19.80;;
4638;SDS011;2332;38.646;-9.154;2023-02-01T06:55:54;39.57;;;20.27;;
4638;SDS011;2332;38.646;-9.154;2023-02-01T06:58:20;32.77;;;20.37;;
4638;SDS011;2332;38.646;-9.154;2023-02-01T07:00:46;30.30;;;19.37;;
4638;SDS011;2332;38.646;-9.154;2023-02-01T07:03:11;31.83;;;20.87;;
4638;SDS011;2332;38.646;-9.154;2023-02-01T07:05:37;46.83;;;24.90;;
4638;SDS011;2332;38.646;-9.154;2023-02-01T07:08:02;42.33;;;25.73;;
4638;SDS011;2332;38.646;-9.154;2023-02-01T07:10:28;43.30;;;28.00;;
4638;SDS011;2332;38.646;-9.154;2023-02-01T07:12:56;49.30;;;29.60;;
4638;SDS011;2332;38.646;-9.154;2023-02-01T07:15:22;52.30;;;29.60;;
4638;SDS011;2332;38.646;-9.154;2023-02-01T07:17:48;50.80;;;31.03;;
4638;SDS011;2332;38.646;-9.154;2023-02-01T07:20:14;49.07;;;31.60;;
4638;SDS011;2332;38.646;-9.154;2023-02-01T07:22:39;53.63;;;31.60;;
4638;SDS011;2332;38.646;-9.154;2023-02-01T07:25:05;51.53;;;30.70;;
4638;SDS011;2332;38.646;-9.154;2023-02-01T07:27:30;52.00;;;31.33;;
4638;SDS011;2332;38.646;-9.154;2023-02-01T07:29:58;53.00;;;30.87;;
4638;SDS011;2332;38.646;-9.154;2023-02-01T07:32:27;58.27;;;30.43;;
4638;SDS011;2332;38.646;-9.154;2023-02-01T07:34:52;49.57;;;29.17;;
4638;SDS011;2332;38.646;-9.154;2023-02-01T07:37:17;53.10;;;25.97;;
4638;SDS011;2332;38.646;-9.154;2023-02-01T07:39:43;49.90;;;26.23;;
4638;SDS011;2332;38.646;-9.154;2023-02-01T07:42:09;51.00;;;27.50;;
4638;SDS011;2332;38.646;-9.154;2023-02-01T07:44:34;47.23;;;27.00;;
4638;SDS011;2332;38.646;-9.154;2023-02-01T07:46:59;48.60;;;28.17;;
4638;SDS011;2332;38.646;-9.154;2023-02-01T07:49:25;46.53;;;27.47;;
4638;SDS011;2332;38.646;-9.154;2023-02-01T07:51:50;46.93;;;26.23;;
4638;SDS011;2332;38.646;-9.154;2023-02-01T07:54:16;38.60;;;24.20;;
4638;SDS011;2332;38.646;-9.154;2023-02-01T07:56:41;45.10;;;26.50;;
4638;SDS011;2332;38.646;-9.154;2023-02-01T07:59:07;45.70;;;27.40;;
4638;SDS011;2332;38.646;-9.154;2023-02-01T08:01:32;43.40;;;27.77;;
4638;SDS011;2332;38.646;-9.154;2023-02-01T08:03:58;50.20;;;29.33;;
4638;SDS011;2332;38.646;-9.154;2023-02-01T08:06:24;41.17;;;27.33;;
4638;SDS011;2332;38.646;-9.154;2023-02-01T08:08:50;49.67;;;28.90;;
4638;SDS011;2332;38.646;-9.154;2023-02-01T08:11:16;50.47;;;28.10;;
4638;SDS011;2332;38.646;-9.154;2023-02-01T08:13:42;46.80;;;28.43;;
4638;SDS011;2332;38.646;-9.154;2023-02-01T08:16:08;52.33;;;28.23;;
4638;SDS011;2332;38.646;-9.154;2023-02-01T08:18:34;50.10;;;28.30;;
4638;SDS011;2332;38.646;-9.154;2023-02-01T08:21:17;46.70;;;28.20;;
4638;SDS011;2332;38.646;-9.154;2023-02-01T08:23:43;45.57;;;27.73;;
4638;SDS011;2332;38.646;-9.154;2023-02-01T08:26:09;44.63;;;26.80;;
4638;SDS011;2332;38.646;-9.154;2023-02-01T08:28:35;44.23;;;26.37;;
4638;SDS011;2332;38.646;-9.154;2023-02-01T08:31:08;43.00;;;25.87;;
4638;SDS011;2332;38.646;-9.154;2023-02-01T08:33:34;46.27;;;27.73;;
4638;SDS011;2332;38.646;-9.154;2023-02-01T08:36:01;39.77;;;25.70;;
4638;SDS011;2332;38.646;-9.154;2023-02-01T08:38:28;44.27;;;27.07;;
4638;SDS011;2332;38.646;-9.154;2023-02-01T08:40:54;43.10;;;25.63;;
4638;SDS011;2332;38.646;-9.154;2023-02-01T08:43:19;45.13;;;27.93;;
4638;SDS011;2332;38.646;-9.154;2023-02-01T08:45:48;42.23;;;25.50;;
4638;SDS011;2332;38.646;-9.154;2023-02-01T08:48:14;38.70;;;24.60;;
4638;SDS011;2332;38.646;-9.154;2023-02-01T08:50:39;38.07;;;25.83;;
4638;SDS011;2332;38.646;-9.154;2023-02-01T08:53:05;35.70;;;24.40;;
4638;SDS011;2332;38.646;-9.154;2023-02-01T08:55:30;42.80;;;24.57;;
4638;SDS011;2332;38.646;-9.154;2023-02-01T08:57:56;44.30;;;25.20;;
4638;SDS011;2332;38.646;-9.154;2023-02-01T09:00:21;52.17;;;27.73;;
4638;SDS011;2332;38.646;-9.154;2023-02-01T09:02:46;43.73;;;25.77;;
4638;SDS011;2332;38.646;-9.154;2023-02-01T09:05:12;41.30;;;25.77;;
4638;SDS011;2332;38.646;-9.154;2023-02-01T09:07:39;44.00;;;27.37;;
4638;SDS011;2332;38.646;-9.154;2023-02-01T09:10:05;45.93;;;26.70;;
4638;SDS011;2332;38.646;-9.154;2023-02-01T09:12:31;46.43;;;27.13;;
4638;SDS011;2332;38.646;-9.154;2023-02-01T09:14:57;43.40;;;24.50;;
4638;SDS011;2332;38.646;-9.154;2023-02-01T09:17:25;39.03;;;24.70;;
4638;SDS011;2332;38.646;-9.154;2023-02-01T09:19:50;45.23;;;26.73;;
4638;SDS011;2332;38.646;-9.154;2023-02-01T09:22:15;44.53;;;25.23;;
4638;SDS011;2332;38.646;-9.154;2023-02-01T09:24:41;35.60;;;25.60;;
4638;SDS011;2332;38.646;-9.154;2023-02-01T09:27:06;37.30;;;26.70;;
4638;SDS011;2332;38.646;-9.154;2023-02-01T09:29:32;36.77;;;25.33;;
4638;SDS011;2332;38.646;-9.154;2023-02-01T09:31:57;35.80;;;25.87;;
4638;SDS011;2332;38.646;-9.154;2023-02-01T09:34:23;44.13;;;25.00;;
4638;SDS011;2332;38.646;-9.154;2023-02-01T09:36:48;35.17;;;25.03;;
4638;SDS011;2332;38.646;-9.154;2023-02-01T09:39:13;37.10;;;26.10;;
4638;SDS011;2332;38.646;-9.154;2023-02-01T09:41:48;35.97;;;25.37;;
4638;SDS011;2332;38.646;-9.154;2023-02-01T09:44:26;37.33;;;25.77;;
4638;SDS011;2332;38.646;-9.154;2023-02-01T09:46:57;39.47;;;27.20;;
4638;SDS011;2332;38.646;-9.154;2023-02-01T09:49:26;40.40;;;26.43;;
4638;SDS011;2332;38.646;-9.154;2023-02-01T09:51:53;38.47;;;26.10;;
4638;SDS011;2332;38.646;-9.154;2023-02-01T09:54:19;37.23;;;24.90;;
4638;SDS011;2332;38.646;-9.154;2023-02-01T10:01:41;38.00;;;27.23;;
4638;SDS011;2332;38.646;-9.154;2023-02-01T10:04:09;38.93;;;26.20;;
4638;SDS011;2332;38.646;-9.154;2023-02-01T10:06:37;40.57;;;24.80;;
4638;SDS011;2332;38.646;-9.154;2023-02-01T10:17:08;33.13;;;22.37;;
4638;SDS011;2332;38.646;-9.154;2023-02-01T10:25:04;35.30;;;23.57;;
4638;SDS011;2332;38.646;-9.154;2023-02-01T10:27:35;37.80;;;24.37;;
4638;SDS011;2332;38.646;-9.154;2023-02-01T10:30:12;42.40;;;24.83;;
4638;SDS011;2332;38.646;-9.154;2023-02-01T10:32:40;39.77;;;26.30;;
4638;SDS011;2332;38.646;-9.154;2023-02-01T10:35:21;35.63;;;25.67;;
4638;SDS011;2332;38.646;-9.154;2023-02-01T10:37:49;44.73;;;23.83;;
4638;SDS011;2332;38.646;-9.154;2023-02-01T10:40:22;32.90;;;22.40;;
4638;SDS011;2332;38.646;-9.154;2023-02-01T10:42:49;39.07;;;26.03;;
4638;SDS011;2332;38.646;-9.154;2023-02-01T10:45:17;34.77;;;24.20;;
4638;SDS011;2332;38.646;-9.154;2023-02-01T10:47:43;35.07;;;24.23;;
4638;SDS011;2332;38.646;-9.154;2023-02-01T10:55:29;39.70;;;25.10;;
4638;SDS011;2332;38.646;-9.154;2023-02-01T10:57:58;42.17;;;25.57;;
4638;SDS011;2332;38.646;-9.154;2023-02-01T11:00:23;41.47;;;25.83;;
4638;SDS011;2332;38.646;-9.154;2023-02-01T11:02:49;41.27;;;24.83;;
4638;SDS011;2332;38.646;-9.154;2023-02-01T11:05:15;39.63;;;24.13;;
4638;SDS011;2332;38.646;-9.154;2023-02-01T11:07:46;39.67;;;24.97;;
4638;SDS011;2332;38.646;-9.154;2023-02-01T11:10:56;43.63;;;26.23;;
4638;SDS011;2332;38.646;-9.154;2023-02-01T11:13:02;39.03;;;24.90;;
4638;SDS011;2332;38.646;-9.154;2023-02-01T11:15:27;31.97;;;21.93;;
4638;SDS011;2332;38.646;-9.154;2023-02-01T11:17:53;29.30;;;21.00;;
4638;SDS011;2332;38.646;-9.154;2023-02-01T11:22:58;32.83;;;20.50;;
4638;SDS011;2332;38.646;-9.154;2023-02-01T11:25:24;31.90;;;21.90;;
4638;SDS011;2332;38.646;-9.154;2023-02-01T11:27:51;31.83;;;22.83;;
4638;SDS011;2332;38.646;-9.154;2023-02-01T11:30:18;33.67;;;23.27;;
4638;SDS011;2332;38.646;-9.154;2023-02-01T11:32:47;34.60;;;24.10;;
4638;SDS011;2332;38.646;-9.154;2023-02-01T11:35:15;37.67;;;25.27;;
4638;SDS011;2332;38.646;-9.154;2023-02-01T11:37:42;38.00;;;24.90;;
4638;SDS011;2332;38.646;-9.154;2023-02-01T11:42:59;36.50;;;24.70;;
4638;SDS011;2332;38.646;-9.154;2023-02-01T11:45:29;38.50;;;25.07;;
4638;SDS011;2332;38.646;-9.154;2023-02-01T11:47:55;34.97;;;24.63;;
4638;SDS011;2332;38.646;-9.154;2023-02-01T11:50:25;35.60;;;25.07;;
4638;SDS011;2332;38.646;-9.154;2023-02-01T11:53:09;37.37;;;26.30;;
4638;SDS011;2332;38.646;-9.154;2023-02-01T12:06:18;39.90;;;24.83;;
4638;SDS011;2332;38.646;-9.154;2023-02-01T12:16:35;39.43;;;25.90;;
4638;SDS011;2332;38.646;-9.154;2023-02-01T12:21:48;39.73;;;25.83;;
4638;SDS011;2332;38.646;-9.154;2023-02-01T12:30:06;38.93;;;25.73;;
4638;SDS011;2332;38.646;-9.154;2023-02-01T12:46:06;28.73;;;20.93;;
4638;SDS011;2332;38.646;-9.154;2023-02-01T12:50:45;27.10;;;17.77;;
4638;SDS011;2332;38.646;-9.154;2023-02-01T12:53:15;26.97;;;17.70;;
4638;SDS011;2332;38.646;-9.154;2023-02-01T12:55:49;31.57;;;18.60;;
4638;SDS011;2332;38.646;-9.154;2023-02-01T12:58:22;25.43;;;17.50;;
4638;SDS011;2332;38.646;-9.154;2023-02-01T13:06:12;30.53;;;19.50;;
4638;SDS011;2332;38.646;-9.154;2023-02-01T13:08:47;27.67;;;20.07;;
4638;SDS011;2332;38.646;-9.154;2023-02-01T13:11:18;24.70;;;18.20;;
4638;SDS011;2332;38.646;-9.154;2023-02-01T13:16:23;26.13;;;18.40;;
4638;SDS011;2332;38.646;-9.154;2023-02-01T13:18:53;28.47;;;18.27;;
4638;SDS011;2332;38.646;-9.154;2023-02-01T13:21:21;26.47;;;19.07;;
4638;SDS011;2332;38.646;-9.154;2023-02-01T13:23:48;26.13;;;16.80;;
4638;SDS011;2332;38.646;-9.154;2023-02-01T13:26:14;22.67;;;16.03;;
4638;SDS011;2332;38.646;-9.154;2023-02-01T13:43:57;18.43;;;13.00;;
4638;SDS011;2332;38.646;-9.154;2023-02-01T13:46:23;21.50;;;13.17;;
4638;SDS011;2332;38.646;-9.154;2023-02-01T13:48:55;18.90;;;12.73;;
4638;SDS011;2332;38.646;-9.154;2023-02-01T13:51:44;13.67;;;11.07;;
4638;SDS011;2332;38.646;-9.154;2023-02-01T13:54:24;14.03;;;11.40;;
4638;SDS011;2332;38.646;-9.154;2023-02-01T13:56:50;16.07;;;12.10;;
4638;SDS011;2332;38.646;-9.154;2023-02-01T14:02:11;13.20;;;11.50;;
4638;SDS011;2332;38.646;-9.154;2023-02-01T14:04:46;12.87;;;10.43;;
4638;SDS011;2332;38.646;-9.154;2023-02-01T14:07:18;19.00;;;12.07;;
4638;SDS011;2332;38.646;-9.154;2023-02-01T14:09:44;13.07;;;11.10;;
4638;SDS011;2332;38.646;-9.154;2023-02-01T14:15:13;16.67;;;12.37;;
4638;SDS011;2332;38.646;-9.154;2023-02-01T14:17:40;15.07;;;12.10;;
4638;SDS011;2332;38.646;-9.154;2023-02-01T14:22:50;16.60;;;13.23;;
4638;SDS011;2332;38.646;-9.154;2023-02-01T14:25:16;20.70;;;12.23;;
4638;SDS011;2332;38.646;-9.154;2023-02-01T14:27:42;19.80;;;13.67;;
4638;SDS011;2332;38.646;-9.154;2023-02-01T14:30:07;17.20;;;13.07;;
4638;SDS011;2332;38.646;-9.154;2023-02-01T14:32:40;18.23;;;13.37;;
4638;SDS011;2332;38.646;-9.154;2023-02-01T14:35:07;16.00;;;12.33;;
4638;SDS011;2332;38.646;-9.154;2023-02-01T14:37:37;19.53;;;13.33;;
4638;SDS011;2332;38.646;-9.154;2023-02-01T14:40:04;17.10;;;12.50;;
4638;SDS011;2332;38.646;-9.154;2023-02-01T14:58:05;19.13;;;11.27;;
4638;SDS011;2332;38.646;-9.154;2023-02-01T15:00:31;21.80;;;10.40;;
4638;SDS011;2332;38.646;-9.154;2023-02-01T15:03:16;14.10;;;10.77;;
4638;SDS011;2332;38.646;-9.154;2023-02-01T15:05:42;13.90;;;10.60;;
4638;SDS011;2332;38.646;-9.154;2023-02-01T15:08:13;15.80;;;10.80;;
4638;SDS011;2332;38.646;-9.154;2023-02-01T15:10:42;14.97;;;10.97;;
4638;SDS011;2332;38.646;-9.154;2023-02-01T15:13:16;13.50;;;10.33;;
4638;SDS011;2332;38.646;-9.154;2023-02-01T15:15:43;14.83;;;11.73;;
4638;SDS011;2332;38.646;-9.154;2023-02-01T15:18:14;16.03;;;12.03;;
4638;SDS011;2332;38.646;-9.154;2023-02-01T15:20:41;20.20;;;12.40;;
4638;SDS011;2332;38.646;-9.154;2023-02-01T15:23:14;18.90;;;12.50;;
4638;SDS011;2332;38.646;-9.154;2023-02-01T15:25:44;17.10;;;12.80;;
4638;SDS011;2332;38.646;-9.154;2023-02-01T15:28:12;21.10;;;13.43;;
4638;SDS011;2332;38.646;-9.154;2023-02-01T15:30:38;17.77;;;12.83;;
4638;SDS011;2332;38.646;-9.154;2023-02-01T15:33:13;17.30;;;12.87;;
4638;SDS011;2332;38.646;-9.154;2023-02-01T15:35:41;21.07;;;13.20;;
4638;SDS011;2332;38.646;-9.154;2023-02-01T15:43:22;18.37;;;13.07;;
4638;SDS011;2332;38.646;-9.154;2023-02-01T15:45:47;22.37;;;13.30;;
4638;SDS011;2332;38.646;-9.154;2023-02-01T15:48:16;18.70;;;12.80;;
4638;SDS011;2332;38.646;-9.154;2023-02-01T15:50:47;17.10;;;12.27;;
4638;SDS011;2332;38.646;-9.154;2023-02-01T15:53:17;14.10;;;10.90;;
4638;SDS011;2332;38.646;-9.154;2023-02-01T15:55:44;14.87;;;10.40;;
4638;SDS011;2332;38.646;-9.154;2023-02-01T15:58:16;13.20;;;9.53;;
4638;SDS011;2332;38.646;-9.154;2023-02-01T16:00:49;12.60;;;9.13;;
4638;SDS011;2332;38.646;-9.154;2023-02-01T16:03:25;12.10;;;9.30;;
4638;SDS011;2332;38.646;-9.154;2023-02-01T16:05:55;12.23;;;8.93;;
4638;SDS011;2332;38.646;-9.154;2023-02-01T16:08:23;9.50;;;8.13;;
4638;SDS011;2332;38.646;-9.154;2023-02-01T16:10:49;10.10;;;8.63;;
4638;SDS011;2332;38.646;-9.154;2023-02-01T16:13:16;10.47;;;8.23;;
4638;SDS011;2332;38.646;-9.154;2023-02-01T16:15:41;11.60;;;8.00;;
4638;SDS011;2332;38.646;-9.154;2023-02-01T16:18:07;14.73;;;8.13;;
4638;SDS011;2332;38.646;-9.154;2023-02-01T16:20:33;7.77;;;6.73;;
4638;SDS011;2332;38.646;-9.154;2023-02-01T16:23:00;11.70;;;7.67;;
4638;SDS011;2332;38.646;-9.154;2023-02-01T16:25:26;9.63;;;7.70;;
4638;SDS011;2332;38.646;-9.154;2023-02-01T16:27:51;11.77;;;7.30;;
4638;SDS011;2332;38.646;-9.154;2023-02-01T16:30:16;12.77;;;7.90;;
4638;SDS011;2332;38.646;-9.154;2023-02-01T16:32:47;10.40;;;7.17;;
4638;SDS011;2332;38.646;-9.154;2023-02-01T16:35:19;13.73;;;7.97;;
4638;SDS011;2332;38.646;-9.154;2023-02-01T16:37:45;7.93;;;6.83;;
4638;SDS011;2332;38.646;-9.154;2023-02-01T16:40:14;11.63;;;7.40;;
4638;SDS011;2332;38.646;-9.154;2023-02-01T16:42:40;16.40;;;8.00;;
4638;SDS011;2332;38.646;-9.154;2023-02-01T16:45:06;8.77;;;7.60;;
4638;SDS011;2332;38.646;-9.154;2023-02-01T16:47:32;7.97;;;7.13;;
4638;SDS011;2332;38.646;-9.154;2023-02-01T16:49:57;10.00;;;8.07;;
4638;SDS011;2332;38.646;-9.154;2023-02-01T16:52:24;15.30;;;8.77;;
4638;SDS011;2332;38.646;-9.154;2023-02-01T16:54:50;11.30;;;8.87;;
4638;SDS011;2332;38.646;-9.154;2023-02-01T16:57:16;14.40;;;10.47;;
4638;SDS011;2332;38.646;-9.154;2023-02-01T16:59:42;15.43;;;12.00;;
4638;SDS011;2332;38.646;-9.154;2023-02-01T17:02:12;12.33;;;10.17;;
4638;SDS011;2332;38.646;-9.154;2023-02-01T17:04:38;15.00;;;10.60;;
4638;SDS011;2332;38.646;-9.154;2023-02-01T17:07:03;13.63;;;10.50;;
4638;SDS011;2332;38.646;-9.154;2023-02-01T17:09:34;15.40;;;11.10;;
4638;SDS011;2332;38.646;-9.154;2023-02-01T17:12:00;13.33;;;11.60;;